sensor_id;sensor_type;location;lat;lon;timestamp;P1;durP1;ratioP1;P2;durP2;ratioP2
77091;SDS011;66032;48.252;11.638;2023-02-11T00:01:09;39.88;;;18.17;;
77091;SDS011;66032;48.252;11.638;2023-02-11T00:03:38;34.75;;;16.33;;
77091;SDS011;66032;48.252;11.638;2023-02-11T00:06:05;36.45;;;17.83;;
77091;SDS011;66032;48.252;11.638;2023-02-11T00:08:35;34.40;;;18.75;;
77091;SDS011;66032;48.252;11.638;2023-02-11T00:11:02;42.00;;;19.52;;
77091;SDS011;66032;48.252;11.638;2023-02-11T00:13:30;36.08;;;17.92;;
77091;SDS011;66032;48.252;11.638;2023-02-11T00:15:57;35.13;;;18.83;;
77091;SDS011;66032;48.252;11.638;2023-02-11T00:18:24;41.33;;;19.67;;
77091;SDS011;66032;48.252;11.638;2023-02-11T00:20:52;47.25;;;22.08;;
77091;SDS011;66032;48.252;11.638;2023-02-11T00:23:19;46.60;;;22.70;;
77091;SDS011;66032;48.252;11.638;2023-02-11T00:25:46;49.97;;;23.65;;
77091;SDS011;66032;48.252;11.638;2023-02-11T00:28:13;42.78;;;21.50;;
77091;SDS011;66032;48.252;11.638;2023-02-11T00:30:41;39.92;;;21.02;;
77091;SDS011;66032;48.252;11.638;2023-02-11T00:33:08;41.13;;;20.02;;
77091;SDS011;66032;48.252;11.638;2023-02-11T00:35:36;40.17;;;20.80;;
77091;SDS011;66032;48.252;11.638;2023-02-11T00:38:06;46.28;;;20.52;;
77091;SDS011;66032;48.252;11.638;2023-02-11T00:40:33;43.42;;;19.33;;
77091;SDS011;66032;48.252;11.638;2023-02-11T00:43:02;38.67;;;19.40;;
77091;SDS011;66032;48.252;11.638;2023-02-11T00:45:29;42.05;;;20.02;;
77091;SDS011;66032;48.252;11.638;2023-02-11T00:47:56;41.75;;;19.63;;
77091;SDS011;66032;48.252;11.638;2023-02-11T00:50:26;39.28;;;18.60;;
77091;SDS011;66032;48.252;11.638;2023-02-11T00:52:54;40.40;;;20.60;;
77091;SDS011;66032;48.252;11.638;2023-02-11T00:55:21;36.55;;;18.83;;
77091;SDS011;66032;48.252;11.638;2023-02-11T00:57:49;30.95;;;16.13;;
77091;SDS011;66032;48.252;11.638;2023-02-11T01:00:16;38.63;;;15.77;;
77091;SDS011;66032;48.252;11.638;2023-02-11T01:02:43;25.77;;;11.75;;
77091;SDS011;66032;48.252;11.638;2023-02-11T01:05:11;34.55;;;16.77;;
77091;SDS011;66032;48.252;11.638;2023-02-11T01:07:38;27.42;;;12.70;;
77091;SDS011;66032;48.252;11.638;2023-02-11T01:10:05;21.00;;;11.13;;
77091;SDS011;66032;48.252;11.638;2023-02-11T01:12:33;17.50;;;9.93;;
77091;SDS011;66032;48.252;11.638;2023-02-11T01:15:02;22.67;;;11.52;;
77091;SDS011;66032;48.252;11.638;2023-02-11T01:17:31;30.35;;;13.35;;
77091;SDS011;66032;48.252;11.638;2023-02-11T01:20:01;27.10;;;13.10;;
77091;SDS011;66032;48.252;11.638;2023-02-11T01:22:30;38.13;;;16.83;;
77091;SDS011;66032;48.252;11.638;2023-02-11T01:24:57;27.77;;;12.60;;
77091;SDS011;66032;48.252;11.638;2023-02-11T01:27:25;28.60;;;13.23;;
77091;SDS011;66032;48.252;11.638;2023-02-11T01:29:52;27.08;;;14.20;;
77091;SDS011;66032;48.252;11.638;2023-02-11T01:32:19;30.23;;;13.80;;
77091;SDS011;66032;48.252;11.638;2023-02-11T01:34:46;26.60;;;12.18;;
77091;SDS011;66032;48.252;11.638;2023-02-11T01:37:13;26.30;;;10.98;;
77091;SDS011;66032;48.252;11.638;2023-02-11T01:39:41;25.95;;;11.20;;
77091;SDS011;66032;48.252;11.638;2023-02-11T01:42:10;20.80;;;9.57;;
77091;SDS011;66032;48.252;11.638;2023-02-11T01:44:42;28.52;;;11.95;;
77091;SDS011;66032;48.252;11.638;2023-02-11T01:47:09;21.85;;;10.60;;
77091;SDS011;66032;48.252;11.638;2023-02-11T01:49:38;21.02;;;10.32;;
77091;SDS011;66032;48.252;11.638;2023-02-11T01:52:15;14.43;;;7.78;;
77091;SDS011;66032;48.252;11.638;2023-02-11T01:54:47;17.48;;;9.18;;
77091;SDS011;66032;48.252;11.638;2023-02-11T01:57:38;28.87;;;12.30;;
77091;SDS011;66032;48.252;11.638;2023-02-11T02:00:19;32.75;;;16.67;;
77091;SDS011;66032;48.252;11.638;2023-02-11T02:07:53;32.95;;;17.58;;
77091;SDS011;66032;48.252;11.638;2023-02-11T02:10:26;32.35;;;15.88;;
77091;SDS011;66032;48.252;11.638;2023-02-11T02:12:54;30.50;;;16.85;;
77091;SDS011;66032;48.252;11.638;2023-02-11T02:15:32;34.55;;;16.10;;
77091;SDS011;66032;48.252;11.638;2023-02-11T02:18:12;31.33;;;14.55;;
77091;SDS011;66032;48.252;11.638;2023-02-11T02:21:02;29.98;;;16.17;;
77091;SDS011;66032;48.252;11.638;2023-02-11T02:35:03;32.22;;;17.75;;
77091;SDS011;66032;48.252;11.638;2023-02-11T02:37:46;27.45;;;15.07;;
77091;SDS011;66032;48.252;11.638;2023-02-11T02:40:27;34.42;;;16.02;;
77091;SDS011;66032;48.252;11.638;2023-02-11T02:42:58;32.55;;;15.38;;
77091;SDS011;66032;48.252;11.638;2023-02-11T02:45:27;33.65;;;16.95;;
77091;SDS011;66032;48.252;11.638;2023-02-11T02:47:55;29.70;;;13.38;;
77091;SDS011;66032;48.252;11.638;2023-02-11T02:50:23;30.02;;;15.25;;
77091;SDS011;66032;48.252;11.638;2023-02-11T02:58:25;28.83;;;15.75;;
77091;SDS011;66032;48.252;11.638;2023-02-11T03:01:07;27.13;;;13.13;;
77091;SDS011;66032;48.252;11.638;2023-02-11T03:06:24;31.73;;;14.63;;
77091;SDS011;66032;48.252;11.638;2023-02-11T03:09:05;27.98;;;14.73;;
77091;SDS011;66032;48.252;11.638;2023-02-11T03:11:37;29.70;;;13.75;;
77091;SDS011;66032;48.252;11.638;2023-02-11T03:14:07;28.83;;;14.02;;
77091;SDS011;66032;48.252;11.638;2023-02-11T03:16:37;29.80;;;13.77;;
77091;SDS011;66032;48.252;11.638;2023-02-11T03:19:12;29.17;;;14.23;;
77091;SDS011;66032;48.252;11.638;2023-02-11T03:21:48;25.95;;;13.13;;
77091;SDS011;66032;48.252;11.638;2023-02-11T03:24:20;26.20;;;14.18;;
77091;SDS011;66032;48.252;11.638;2023-02-11T03:26:56;24.38;;;12.77;;
77091;SDS011;66032;48.252;11.638;2023-02-11T03:29:47;16.33;;;9.73;;
77091;SDS011;66032;48.252;11.638;2023-02-11T03:32:24;27.83;;;13.50;;
77091;SDS011;66032;48.252;11.638;2023-02-11T03:34:59;30.27;;;14.23;;
77091;SDS011;66032;48.252;11.638;2023-02-11T03:37:59;24.10;;;12.75;;
77091;SDS011;66032;48.252;11.638;2023-02-11T03:40:31;31.65;;;13.60;;
77091;SDS011;66032;48.252;11.638;2023-02-11T03:43:09;29.03;;;13.20;;
77091;SDS011;66032;48.252;11.638;2023-02-11T03:45:46;24.42;;;11.48;;
77091;SDS011;66032;48.252;11.638;2023-02-11T03:48:18;25.50;;;11.98;;
77091;SDS011;66032;48.252;11.638;2023-02-11T03:50:58;23.13;;;12.07;;
77091;SDS011;66032;48.252;11.638;2023-02-11T03:53:31;26.67;;;12.40;;
77091;SDS011;66032;48.252;11.638;2023-02-11T03:55:59;26.83;;;13.40;;
77091;SDS011;66032;48.252;11.638;2023-02-11T04:00:58;18.38;;;9.00;;
77091;SDS011;66032;48.252;11.638;2023-02-11T04:03:25;19.13;;;10.13;;
77091;SDS011;66032;48.252;11.638;2023-02-11T04:05:52;13.77;;;7.60;;
77091;SDS011;66032;48.252;11.638;2023-02-11T04:08:19;19.42;;;9.25;;
77091;SDS011;66032;48.252;11.638;2023-02-11T04:10:47;21.38;;;10.80;;
77091;SDS011;66032;48.252;11.638;2023-02-11T04:13:14;20.10;;;9.48;;
77091;SDS011;66032;48.252;11.638;2023-02-11T04:15:41;21.42;;;9.85;;
77091;SDS011;66032;48.252;11.638;2023-02-11T04:18:08;16.25;;;7.15;;
77091;SDS011;66032;48.252;11.638;2023-02-11T04:20:35;12.18;;;6.20;;
77091;SDS011;66032;48.252;11.638;2023-02-11T04:23:02;19.60;;;7.68;;
77091;SDS011;66032;48.252;11.638;2023-02-11T04:25:30;17.38;;;7.38;;
77091;SDS011;66032;48.252;11.638;2023-02-11T04:27:57;13.68;;;6.55;;
77091;SDS011;66032;48.252;11.638;2023-02-11T04:30:25;18.15;;;7.57;;
77091;SDS011;66032;48.252;11.638;2023-02-11T04:32:52;19.95;;;8.48;;
77091;SDS011;66032;48.252;11.638;2023-02-11T04:35:20;22.23;;;9.77;;
77091;SDS011;66032;48.252;11.638;2023-02-11T04:37:47;21.10;;;10.50;;
77091;SDS011;66032;48.252;11.638;2023-02-11T04:40:14;17.77;;;8.35;;
77091;SDS011;66032;48.252;11.638;2023-02-11T04:42:42;12.02;;;6.30;;
77091;SDS011;66032;48.252;11.638;2023-02-11T04:45:09;18.70;;;9.93;;
77091;SDS011;66032;48.252;11.638;2023-02-11T04:47:36;18.25;;;10.05;;
77091;SDS011;66032;48.252;11.638;2023-02-11T04:50:03;16.75;;;7.32;;
77091;SDS011;66032;48.252;11.638;2023-02-11T04:52:31;15.63;;;7.85;;
77091;SDS011;66032;48.252;11.638;2023-02-11T04:54:58;18.55;;;8.10;;
77091;SDS011;66032;48.252;11.638;2023-02-11T04:57:25;18.85;;;8.75;;
77091;SDS011;66032;48.252;11.638;2023-02-11T04:59:52;13.95;;;6.40;;
77091;SDS011;66032;48.252;11.638;2023-02-11T05:02:20;12.85;;;6.40;;
77091;SDS011;66032;48.252;11.638;2023-02-11T05:04:47;12.07;;;7.05;;
77091;SDS011;66032;48.252;11.638;2023-02-11T05:07:14;16.30;;;8.43;;
77091;SDS011;66032;48.252;11.638;2023-02-11T05:09:41;20.20;;;9.70;;
77091;SDS011;66032;48.252;11.638;2023-02-11T05:12:08;20.42;;;10.70;;
77091;SDS011;66032;48.252;11.638;2023-02-11T05:14:36;18.30;;;9.82;;
77091;SDS011;66032;48.252;11.638;2023-02-11T05:17:03;15.57;;;8.98;;
77091;SDS011;66032;48.252;11.638;2023-02-11T05:19:30;18.35;;;10.05;;
77091;SDS011;66032;48.252;11.638;2023-02-11T05:21:57;22.13;;;10.77;;
77091;SDS011;66032;48.252;11.638;2023-02-11T05:24:32;20.33;;;10.80;;
77091;SDS011;66032;48.252;11.638;2023-02-11T05:27:00;23.30;;;11.98;;
77091;SDS011;66032;48.252;11.638;2023-02-11T05:29:27;22.23;;;11.07;;
77091;SDS011;66032;48.252;11.638;2023-02-11T05:31:55;21.60;;;11.20;;
77091;SDS011;66032;48.252;11.638;2023-02-11T05:34:23;24.08;;;11.73;;
77091;SDS011;66032;48.252;11.638;2023-02-11T05:36:51;19.40;;;11.35;;
77091;SDS011;66032;48.252;11.638;2023-02-11T05:39:18;21.55;;;11.00;;
77091;SDS011;66032;48.252;11.638;2023-02-11T05:41:45;23.40;;;11.48;;
77091;SDS011;66032;48.252;11.638;2023-02-11T05:44:12;21.95;;;11.77;;
77091;SDS011;66032;48.252;11.638;2023-02-11T05:46:39;20.58;;;10.52;;
77091;SDS011;66032;48.252;11.638;2023-02-11T05:49:07;20.73;;;10.90;;
77091;SDS011;66032;48.252;11.638;2023-02-11T05:51:34;22.13;;;10.40;;
77091;SDS011;66032;48.252;11.638;2023-02-11T05:54:01;19.02;;;9.82;;
77091;SDS011;66032;48.252;11.638;2023-02-11T05:56:29;18.25;;;9.60;;
77091;SDS011;66032;48.252;11.638;2023-02-11T05:58:57;18.98;;;10.88;;
77091;SDS011;66032;48.252;11.638;2023-02-11T06:01:25;19.00;;;9.63;;
77091;SDS011;66032;48.252;11.638;2023-02-11T06:03:52;18.63;;;10.23;;
77091;SDS011;66032;48.252;11.638;2023-02-11T06:06:20;17.30;;;9.40;;
77091;SDS011;66032;48.252;11.638;2023-02-11T06:08:47;18.08;;;8.40;;
77091;SDS011;66032;48.252;11.638;2023-02-11T06:11:15;19.08;;;8.65;;
77091;SDS011;66032;48.252;11.638;2023-02-11T06:13:43;15.98;;;8.98;;
77091;SDS011;66032;48.252;11.638;2023-02-11T06:16:10;14.60;;;7.00;;
77091;SDS011;66032;48.252;11.638;2023-02-11T06:18:37;18.33;;;8.52;;
77091;SDS011;66032;48.252;11.638;2023-02-11T06:21:05;11.63;;;6.47;;
77091;SDS011;66032;48.252;11.638;2023-02-11T06:23:34;12.13;;;6.32;;
77091;SDS011;66032;48.252;11.638;2023-02-11T06:26:05;12.50;;;5.90;;
77091;SDS011;66032;48.252;11.638;2023-02-11T06:28:35;14.68;;;7.00;;
77091;SDS011;66032;48.252;11.638;2023-02-11T06:31:07;16.92;;;8.48;;
77091;SDS011;66032;48.252;11.638;2023-02-11T06:33:35;17.63;;;8.68;;
77091;SDS011;66032;48.252;11.638;2023-02-11T06:36:03;14.75;;;8.20;;
77091;SDS011;66032;48.252;11.638;2023-02-11T06:38:37;14.98;;;7.95;;
77091;SDS011;66032;48.252;11.638;2023-02-11T06:41:05;15.55;;;7.75;;
77091;SDS011;66032;48.252;11.638;2023-02-11T06:43:32;14.30;;;7.55;;
77091;SDS011;66032;48.252;11.638;2023-02-11T06:45:59;14.18;;;7.15;;
77091;SDS011;66032;48.252;11.638;2023-02-11T06:48:26;15.93;;;7.60;;
77091;SDS011;66032;48.252;11.638;2023-02-11T06:50:53;17.77;;;7.43;;
77091;SDS011;66032;48.252;11.638;2023-02-11T06:53:21;15.10;;;7.95;;
77091;SDS011;66032;48.252;11.638;2023-02-11T06:55:48;11.82;;;7.25;;
77091;SDS011;66032;48.252;11.638;2023-02-11T06:58:16;14.57;;;8.13;;
77091;SDS011;66032;48.252;11.638;2023-02-11T07:00:43;15.68;;;7.78;;
77091;SDS011;66032;48.252;11.638;2023-02-11T07:03:10;13.90;;;7.82;;
77091;SDS011;66032;48.252;11.638;2023-02-11T07:05:40;14.00;;;7.07;;
77091;SDS011;66032;48.252;11.638;2023-02-11T07:08:08;16.20;;;7.87;;
77091;SDS011;66032;48.252;11.638;2023-02-11T07:10:36;15.63;;;7.55;;
77091;SDS011;66032;48.252;11.638;2023-02-11T07:13:03;13.20;;;7.35;;
77091;SDS011;66032;48.252;11.638;2023-02-11T07:15:30;15.75;;;8.70;;
77091;SDS011;66032;48.252;11.638;2023-02-11T07:17:57;14.23;;;7.78;;
77091;SDS011;66032;48.252;11.638;2023-02-11T07:20:25;15.70;;;7.88;;
77091;SDS011;66032;48.252;11.638;2023-02-11T07:22:52;15.05;;;7.30;;
77091;SDS011;66032;48.252;11.638;2023-02-11T07:25:19;14.77;;;6.97;;
77091;SDS011;66032;48.252;11.638;2023-02-11T07:27:47;15.55;;;7.22;;
77091;SDS011;66032;48.252;11.638;2023-02-11T07:30:15;9.95;;;5.60;;
77091;SDS011;66032;48.252;11.638;2023-02-11T07:32:43;11.05;;;5.80;;
77091;SDS011;66032;48.252;11.638;2023-02-11T07:35:10;12.25;;;6.70;;
77091;SDS011;66032;48.252;11.638;2023-02-11T07:37:37;14.48;;;7.45;;
77091;SDS011;66032;48.252;11.638;2023-02-11T07:40:04;13.55;;;6.88;;
77091;SDS011;66032;48.252;11.638;2023-02-11T07:42:33;17.25;;;8.45;;
77091;SDS011;66032;48.252;11.638;2023-02-11T07:45:01;12.93;;;7.28;;
77091;SDS011;66032;48.252;11.638;2023-02-11T07:47:28;15.77;;;7.03;;
77091;SDS011;66032;48.252;11.638;2023-02-11T07:49:55;13.88;;;7.30;;
77091;SDS011;66032;48.252;11.638;2023-02-11T07:52:22;13.30;;;7.45;;
77091;SDS011;66032;48.252;11.638;2023-02-11T07:54:49;14.50;;;6.90;;
77091;SDS011;66032;48.252;11.638;2023-02-11T07:57:17;12.05;;;6.55;;
77091;SDS011;66032;48.252;11.638;2023-02-11T07:59:44;10.50;;;5.43;;
77091;SDS011;66032;48.252;11.638;2023-02-11T08:02:11;12.43;;;6.18;;
77091;SDS011;66032;48.252;11.638;2023-02-11T08:04:38;10.68;;;5.20;;
77091;SDS011;66032;48.252;11.638;2023-02-11T08:07:06;13.35;;;7.03;;
77091;SDS011;66032;48.252;11.638;2023-02-11T08:09:33;12.82;;;6.85;;
77091;SDS011;66032;48.252;11.638;2023-02-11T08:12:00;14.85;;;7.47;;
77091;SDS011;66032;48.252;11.638;2023-02-11T08:14:27;15.27;;;7.55;;
77091;SDS011;66032;48.252;11.638;2023-02-11T08:16:55;12.70;;;7.38;;
77091;SDS011;66032;48.252;11.638;2023-02-11T08:19:22;11.77;;;6.50;;
77091;SDS011;66032;48.252;11.638;2023-02-11T08:21:49;13.43;;;7.13;;
77091;SDS011;66032;48.252;11.638;2023-02-11T08:24:16;10.32;;;5.90;;
77091;SDS011;66032;48.252;11.638;2023-02-11T08:26:44;9.30;;;5.05;;
77091;SDS011;66032;48.252;11.638;2023-02-11T08:29:12;11.20;;;5.10;;
77091;SDS011;66032;48.252;11.638;2023-02-11T08:31:41;13.50;;;7.18;;
77091;SDS011;66032;48.252;11.638;2023-02-11T08:34:11;10.63;;;5.22;;
77091;SDS011;66032;48.252;11.638;2023-02-11T08:36:45;11.75;;;6.82;;
77091;SDS011;66032;48.252;11.638;2023-02-11T08:39:18;12.18;;;6.97;;
77091;SDS011;66032;48.252;11.638;2023-02-11T08:41:48;10.70;;;6.28;;
77091;SDS011;66032;48.252;11.638;2023-02-11T08:44:17;10.85;;;6.35;;
77091;SDS011;66032;48.252;11.638;2023-02-11T08:46:47;8.85;;;4.60;;
77091;SDS011;66032;48.252;11.638;2023-02-11T08:49:15;13.85;;;7.60;;
77091;SDS011;66032;48.252;11.638;2023-02-11T08:51:43;13.77;;;8.10;;
77091;SDS011;66032;48.252;11.638;2023-02-11T08:54:11;12.15;;;6.63;;
77091;SDS011;66032;48.252;11.638;2023-02-11T08:56:38;13.48;;;7.28;;
77091;SDS011;66032;48.252;11.638;2023-02-11T08:59:07;16.70;;;7.45;;
77091;SDS011;66032;48.252;11.638;2023-02-11T09:01:35;14.93;;;7.25;;
77091;SDS011;66032;48.252;11.638;2023-02-11T09:04:02;9.80;;;6.20;;
77091;SDS011;66032;48.252;11.638;2023-02-11T09:06:30;14.25;;;7.25;;
77091;SDS011;66032;48.252;11.638;2023-02-11T09:08:57;15.32;;;7.07;;
77091;SDS011;66032;48.252;11.638;2023-02-11T09:11:29;13.05;;;6.72;;
77091;SDS011;66032;48.252;11.638;2023-02-11T09:14:02;16.45;;;8.40;;
77091;SDS011;66032;48.252;11.638;2023-02-11T09:16:31;11.32;;;7.13;;
77091;SDS011;66032;48.252;11.638;2023-02-11T09:19:01;14.45;;;7.75;;
77091;SDS011;66032;48.252;11.638;2023-02-11T09:21:30;14.52;;;7.57;;
77091;SDS011;66032;48.252;11.638;2023-02-11T09:23:57;14.75;;;8.20;;
77091;SDS011;66032;48.252;11.638;2023-02-11T09:26:26;14.75;;;7.10;;
77091;SDS011;66032;48.252;11.638;2023-02-11T09:28:55;13.25;;;8.07;;
77091;SDS011;66032;48.252;11.638;2023-02-11T09:31:23;12.18;;;6.60;;
77091;SDS011;66032;48.252;11.638;2023-02-11T09:33:53;14.63;;;8.30;;
77091;SDS011;66032;48.252;11.638;2023-02-11T09:36:23;15.07;;;8.93;;
77091;SDS011;66032;48.252;11.638;2023-02-11T09:38:53;11.52;;;7.28;;
77091;SDS011;66032;48.252;11.638;2023-02-11T09:44:15;16.27;;;9.00;;
77091;SDS011;66032;48.252;11.638;2023-02-11T09:46:53;15.45;;;9.07;;
77091;SDS011;66032;48.252;11.638;2023-02-11T09:49:38;18.27;;;9.88;;
77091;SDS011;66032;48.252;11.638;2023-02-11T09:52:29;12.25;;;7.80;;
77091;SDS011;66032;48.252;11.638;2023-02-11T09:58:03;14.67;;;8.60;;
77091;SDS011;66032;48.252;11.638;2023-02-11T10:00:46;12.75;;;7.05;;
77091;SDS011;66032;48.252;11.638;2023-02-11T10:03:24;15.13;;;8.95;;
77091;SDS011;66032;48.252;11.638;2023-02-11T10:23:04;16.30;;;9.27;;
77091;SDS011;66032;48.252;11.638;2023-02-11T10:25:40;16.15;;;9.77;;
77091;SDS011;66032;48.252;11.638;2023-02-11T10:28:18;15.07;;;9.18;;
77091;SDS011;66032;48.252;11.638;2023-02-11T10:35:53;14.95;;;8.82;;
77091;SDS011;66032;48.252;11.638;2023-02-11T10:38:20;17.10;;;9.48;;
77091;SDS011;66032;48.252;11.638;2023-02-11T10:40:47;16.23;;;8.70;;
77091;SDS011;66032;48.252;11.638;2023-02-11T10:43:16;14.88;;;8.35;;
77091;SDS011;66032;48.252;11.638;2023-02-11T10:45:47;16.98;;;9.88;;
77091;SDS011;66032;48.252;11.638;2023-02-11T10:56:34;17.70;;;11.35;;
77091;SDS011;66032;48.252;11.638;2023-02-11T10:59:04;16.90;;;10.65;;
77091;SDS011;66032;48.252;11.638;2023-02-11T11:01:45;18.67;;;10.93;;
77091;SDS011;66032;48.252;11.638;2023-02-11T11:07:18;16.65;;;9.77;;
77091;SDS011;66032;48.252;11.638;2023-02-11T11:09:55;15.55;;;9.60;;
77091;SDS011;66032;48.252;11.638;2023-02-11T11:20:57;19.80;;;12.25;;
77091;SDS011;66032;48.252;11.638;2023-02-11T11:23:27;17.10;;;10.10;;
77091;SDS011;66032;48.252;11.638;2023-02-11T11:26:14;19.15;;;11.63;;
77091;SDS011;66032;48.252;11.638;2023-02-11T11:31:35;15.30;;;9.10;;
77091;SDS011;66032;48.252;11.638;2023-02-11T11:34:22;15.95;;;9.77;;
77091;SDS011;66032;48.252;11.638;2023-02-11T11:36:53;17.30;;;10.07;;
77091;SDS011;66032;48.252;11.638;2023-02-11T11:39:23;19.92;;;10.80;;
77091;SDS011;66032;48.252;11.638;2023-02-11T11:42:00;16.38;;;10.20;;
77091;SDS011;66032;48.252;11.638;2023-02-11T11:44:59;15.10;;;9.90;;
77091;SDS011;66032;48.252;11.638;2023-02-11T11:50:17;18.30;;;10.77;;
77091;SDS011;66032;48.252;11.638;2023-02-11T11:55:50;18.10;;;10.65;;
77091;SDS011;66032;48.252;11.638;2023-02-11T11:58:27;18.45;;;10.20;;
77091;SDS011;66032;48.252;11.638;2023-02-11T12:06:54;15.55;;;9.13;;
77091;SDS011;66032;48.252;11.638;2023-02-11T12:09:32;20.50;;;10.75;;
77091;SDS011;66032;48.252;11.638;2023-02-11T12:12:26;16.92;;;9.88;;
77091;SDS011;66032;48.252;11.638;2023-02-11T12:17:51;16.25;;;10.25;;
77091;SDS011;66032;48.252;11.638;2023-02-11T12:23:04;17.00;;;10.55;;
77091;SDS011;66032;48.252;11.638;2023-02-11T12:25:51;19.67;;;11.52;;
77091;SDS011;66032;48.252;11.638;2023-02-11T12:28:33;14.07;;;8.15;;
77091;SDS011;66032;48.252;11.638;2023-02-11T12:36:43;19.30;;;11.27;;
77091;SDS011;66032;48.252;11.638;2023-02-11T12:55:47;21.50;;;10.30;;
77091;SDS011;66032;48.252;11.638;2023-02-11T12:58:18;19.20;;;11.27;;
77091;SDS011;66032;48.252;11.638;2023-02-11T13:01:14;17.63;;;10.02;;
77091;SDS011;66032;48.252;11.638;2023-02-11T13:03:52;15.70;;;9.05;;
77091;SDS011;66032;48.252;11.638;2023-02-11T13:06:28;18.73;;;10.50;;
77091;SDS011;66032;48.252;11.638;2023-02-11T13:09:12;17.17;;;9.13;;
77091;SDS011;66032;48.252;11.638;2023-02-11T13:11:50;15.80;;;9.18;;
77091;SDS011;66032;48.252;11.638;2023-02-11T13:14:26;19.33;;;11.10;;
77091;SDS011;66032;48.252;11.638;2023-02-11T13:16:56;16.05;;;9.57;;
77091;SDS011;66032;48.252;11.638;2023-02-11T13:19:35;15.43;;;8.75;;
77091;SDS011;66032;48.252;11.638;2023-02-11T13:37:55;15.77;;;9.55;;
77091;SDS011;66032;48.252;11.638;2023-02-11T13:40:43;17.13;;;9.60;;
77091;SDS011;66032;48.252;11.638;2023-02-11T13:43:21;15.93;;;9.13;;
77091;SDS011;66032;48.252;11.638;2023-02-11T13:45:51;17.98;;;10.48;;
77091;SDS011;66032;48.252;11.638;2023-02-11T13:48:29;18.23;;;10.23;;
77091;SDS011;66032;48.252;11.638;2023-02-11T13:50:58;14.57;;;8.32;;
77091;SDS011;66032;48.252;11.638;2023-02-11T13:56:26;16.60;;;9.30;;
77091;SDS011;66032;48.252;11.638;2023-02-11T13:58:54;16.90;;;9.57;;
77091;SDS011;66032;48.252;11.638;2023-02-11T14:11:02;15.88;;;9.82;;
77091;SDS011;66032;48.252;11.638;2023-02-11T14:13:34;18.20;;;10.00;;
77091;SDS011;66032;48.252;11.638;2023-02-11T14:16:16;20.23;;;11.13;;
77091;SDS011;66032;48.252;11.638;2023-02-11T14:19:03;15.25;;;9.27;;
77091;SDS011;66032;48.252;11.638;2023-02-11T14:21:36;17.48;;;10.43;;
77091;SDS011;66032;48.252;11.638;2023-02-11T14:26:53;16.85;;;9.77;;
77091;SDS011;66032;48.252;11.638;2023-02-11T14:32:44;18.17;;;10.52;;
77091;SDS011;66032;48.252;11.638;2023-02-11T14:35:23;15.95;;;9.63;;
77091;SDS011;66032;48.252;11.638;2023-02-11T14:37:57;18.10;;;10.40;;
77091;SDS011;66032;48.252;11.638;2023-02-11T14:40:29;17.80;;;9.70;;
77091;SDS011;66032;48.252;11.638;2023-02-11T14:43:11;15.02;;;8.82;;
77091;SDS011;66032;48.252;11.638;2023-02-11T14:45:41;16.65;;;9.82;;
77091;SDS011;66032;48.252;11.638;2023-02-11T14:48:15;19.70;;;10.90;;
77091;SDS011;66032;48.252;11.638;2023-02-11T14:50:45;18.13;;;9.93;;
77091;SDS011;66032;48.252;11.638;2023-02-11T14:53:22;17.45;;;9.63;;
77091;SDS011;66032;48.252;11.638;2023-02-11T14:55:52;14.27;;;9.10;;
77091;SDS011;66032;48.252;11.638;2023-02-11T14:58:22;17.33;;;9.45;;
77091;SDS011;66032;48.252;11.638;2023-02-11T15:03:24;14.85;;;8.57;;
77091;SDS011;66032;48.252;11.638;2023-02-11T15:08:35;15.13;;;9.05;;
77091;SDS011;66032;48.252;11.638;2023-02-11T15:11:06;17.42;;;9.65;;
77091;SDS011;66032;48.252;11.638;2023-02-11T15:13:38;13.02;;;8.25;;
77091;SDS011;66032;48.252;11.638;2023-02-11T15:16:10;14.07;;;8.82;;
77091;SDS011;66032;48.252;11.638;2023-02-11T15:18:41;16.52;;;8.35;;
77091;SDS011;66032;48.252;11.638;2023-02-11T15:21:11;15.82;;;9.00;;
77091;SDS011;66032;48.252;11.638;2023-02-11T15:23:38;14.65;;;9.05;;
77091;SDS011;66032;48.252;11.638;2023-02-11T15:26:11;14.73;;;8.68;;
77091;SDS011;66032;48.252;11.638;2023-02-11T15:28:47;15.60;;;9.02;;
77091;SDS011;66032;48.252;11.638;2023-02-11T15:31:19;16.30;;;9.70;;
77091;SDS011;66032;48.252;11.638;2023-02-11T15:33:49;15.70;;;8.57;;
77091;SDS011;66032;48.252;11.638;2023-02-11T15:36:17;10.65;;;6.43;;
77091;SDS011;66032;48.252;11.638;2023-02-11T15:39:14;12.43;;;6.68;;
77091;SDS011;66032;48.252;11.638;2023-02-11T15:41:45;12.10;;;6.72;;
77091;SDS011;66032;48.252;11.638;2023-02-11T15:44:29;12.43;;;7.53;;
77091;SDS011;66032;48.252;11.638;2023-02-11T15:46:58;10.48;;;5.95;;
77091;SDS011;66032;48.252;11.638;2023-02-11T15:49:26;14.23;;;6.85;;
77091;SDS011;66032;48.252;11.638;2023-02-11T15:51:53;9.95;;;5.55;;
77091;SDS011;66032;48.252;11.638;2023-02-11T15:54:24;10.75;;;5.90;;
77091;SDS011;66032;48.252;11.638;2023-02-11T15:56:54;9.43;;;5.15;;
77091;SDS011;66032;48.252;11.638;2023-02-11T15:59:29;10.60;;;6.43;;
77091;SDS011;66032;48.252;11.638;2023-02-11T16:02:04;11.10;;;6.85;;
77091;SDS011;66032;48.252;11.638;2023-02-11T16:04:49;10.90;;;5.80;;
77091;SDS011;66032;48.252;11.638;2023-02-11T16:12:55;9.85;;;6.35;;
77091;SDS011;66032;48.252;11.638;2023-02-11T16:18:19;10.93;;;6.80;;
77091;SDS011;66032;48.252;11.638;2023-02-11T16:21:06;10.80;;;6.63;;
77091;SDS011;66032;48.252;11.638;2023-02-11T16:23:41;12.52;;;7.00;;
77091;SDS011;66032;48.252;11.638;2023-02-11T16:26:19;10.85;;;5.95;;
77091;SDS011;66032;48.252;11.638;2023-02-11T16:28:47;13.88;;;7.00;;
77091;SDS011;66032;48.252;11.638;2023-02-11T16:31:15;10.27;;;6.03;;
77091;SDS011;66032;48.252;11.638;2023-02-11T16:33:43;11.02;;;6.13;;
77091;SDS011;66032;48.252;11.638;2023-02-11T16:36:11;8.23;;;4.68;;
77091;SDS011;66032;48.252;11.638;2023-02-11T16:38:40;8.23;;;4.55;;
77091;SDS011;66032;48.252;11.638;2023-02-11T16:41:07;13.15;;;7.22;;
77091;SDS011;66032;48.252;11.638;2023-02-11T16:43:38;14.48;;;7.35;;
77091;SDS011;66032;48.252;11.638;2023-02-11T16:46:06;12.77;;;6.72;;
77091;SDS011;66032;48.252;11.638;2023-02-11T16:48:35;14.43;;;7.50;;
77091;SDS011;66032;48.252;11.638;2023-02-11T16:51:03;10.93;;;6.03;;
77091;SDS011;66032;48.252;11.638;2023-02-11T16:53:33;12.30;;;7.03;;
77091;SDS011;66032;48.252;11.638;2023-02-11T16:56:01;9.63;;;5.70;;
77091;SDS011;66032;48.252;11.638;2023-02-11T16:58:28;9.88;;;5.20;;
77091;SDS011;66032;48.252;11.638;2023-02-11T17:00:55;9.15;;;5.45;;
77091;SDS011;66032;48.252;11.638;2023-02-11T17:03:23;9.05;;;5.18;;
77091;SDS011;66032;48.252;11.638;2023-02-11T17:05:55;14.13;;;6.90;;
77091;SDS011;66032;48.252;11.638;2023-02-11T17:08:23;12.30;;;7.07;;
77091;SDS011;66032;48.252;11.638;2023-02-11T17:10:50;18.08;;;8.07;;
77091;SDS011;66032;48.252;11.638;2023-02-11T17:13:17;12.70;;;7.65;;
77091;SDS011;66032;48.252;11.638;2023-02-11T17:15:45;13.82;;;7.47;;
77091;SDS011;66032;48.252;11.638;2023-02-11T17:18:12;10.73;;;7.00;;
77091;SDS011;66032;48.252;11.638;2023-02-11T17:20:40;13.10;;;6.97;;
77091;SDS011;66032;48.252;11.638;2023-02-11T17:23:07;13.98;;;7.57;;
77091;SDS011;66032;48.252;11.638;2023-02-11T17:25:35;14.63;;;7.65;;